sensor_id;sensor_type;location;lat;lon;timestamp;pressure;altitude;pressure_sealevel;temperature;humidity
46690;BME280;32423;45.398;10.874;2023-04-25T00:01:51;100035.72;;;15.40;59.35
46690;BME280;32423;45.398;10.874;2023-04-25T00:04:43;100033.84;;;15.45;58.98
46690;BME280;32423;45.398;10.874;2023-04-25T00:07:35;100035.88;;;15.48;58.92
46690;BME280;32423;45.398;10.874;2023-04-25T00:10:27;100024.13;;;15.47;59.31
46690;BME280;32423;45.398;10.874;2023-04-25T00:13:19;100014.38;;;15.50;59.03
46690;BME280;32423;45.398;10.874;2023-04-25T00:16:11;100015.53;;;15.49;59.42
46690;BME280;32423;45.398;10.874;2023-04-25T00:19:03;100011.06;;;15.40;59.99
46690;BME280;32423;45.398;10.874;2023-04-25T00:21:55;100013.03;;;15.40;59.91
46690;BME280;32423;45.398;10.874;2023-04-25T00:24:47;100003.59;;;15.37;59.95
46690;BME280;32423;45.398;10.874;2023-04-25T00:27:39;100007.44;;;15.33;59.58
46690;BME280;32423;45.398;10.874;2023-04-25T00:30:31;100006.34;;;15.37;59.47
46690;BME280;32423;45.398;10.874;2023-04-25T00:33:23;100000.88;;;15.37;59.61
46690;BME280;32423;45.398;10.874;2023-04-25T00:36:15;99994.75;;;15.25;59.62
46690;BME280;32423;45.398;10.874;2023-04-25T00:39:07;99990.56;;;15.31;60.14
46690;BME280;32423;45.398;10.874;2023-04-25T00:41:59;100000.06;;;15.37;59.16
46690;BME280;32423;45.398;10.874;2023-04-25T00:44:51;99997.72;;;15.39;59.08
46690;BME280;32423;45.398;10.874;2023-04-25T00:47:44;99997.03;;;15.42;58.34
46690;BME280;32423;45.398;10.874;2023-04-25T00:50:37;100000.56;;;15.43;58.78
46690;BME280;32423;45.398;10.874;2023-04-25T00:53:29;99994.34;;;15.46;57.92
46690;BME280;32423;45.398;10.874;2023-04-25T00:56:16;99993.84;;;15.40;57.80
46690;BME280;32423;45.398;10.874;2023-04-25T00:59:08;99986.38;;;15.37;57.71
46690;BME280;32423;45.398;10.874;2023-04-25T01:01:58;99978.75;;;15.27;58.00
46690;BME280;32423;45.398;10.874;2023-04-25T01:04:50;99969.31;;;15.24;58.09
46690;BME280;32423;45.398;10.874;2023-04-25T01:07:42;99963.81;;;15.24;57.80
46690;BME280;32423;45.398;10.874;2023-04-25T01:10:34;99967.00;;;15.26;58.00
46690;BME280;32423;45.398;10.874;2023-04-25T01:13:26;99966.94;;;15.23;58.42
46690;BME280;32423;45.398;10.874;2023-04-25T01:16:19;99960.59;;;15.19;57.83
46690;BME280;32423;45.398;10.874;2023-04-25T01:19:08;99968.41;;;15.17;58.19
46690;BME280;32423;45.398;10.874;2023-04-25T01:22:01;99971.69;;;15.26;57.62
46690;BME280;32423;45.398;10.874;2023-04-25T01:24:53;99968.09;;;15.22;57.76
46690;BME280;32423;45.398;10.874;2023-04-25T01:27:45;99961.03;;;15.21;57.34
46690;BME280;32423;45.398;10.874;2023-04-25T01:30:37;99967.66;;;15.20;57.48
46690;BME280;32423;45.398;10.874;2023-04-25T01:33:29;99971.63;;;15.22;57.77
46690;BME280;32423;45.398;10.874;2023-04-25T01:36:19;99967.66;;;15.20;57.74
46690;BME280;32423;45.398;10.874;2023-04-25T01:39:09;99969.59;;;15.19;58.16
46690;BME280;32423;45.398;10.874;2023-04-25T01:42:01;99969.25;;;15.21;58.18
46690;BME280;32423;45.398;10.874;2023-04-25T01:44:53;99971.75;;;15.29;57.58
46690;BME280;32423;45.398;10.874;2023-04-25T01:47:45;99967.84;;;15.30;57.76
46690;BME280;32423;45.398;10.874;2023-04-25T01:50:38;99968.59;;;15.27;57.63
46690;BME280;32423;45.398;10.874;2023-04-25T01:53:30;99962.38;;;15.30;57.54
46690;BME280;32423;45.398;10.874;2023-04-25T01:56:22;99957.03;;;15.37;56.64
46690;BME280;32423;45.398;10.874;2023-04-25T01:59:12;99957.31;;;15.32;57.17
46690;BME280;32423;45.398;10.874;2023-04-25T02:02:24;99946.84;;;15.38;56.70
46690;BME280;32423;45.398;10.874;2023-04-25T02:05:16;99947.56;;;15.35;56.75
46690;BME280;32423;45.398;10.874;2023-04-25T02:08:08;99936.25;;;15.36;56.18
46690;BME280;32423;45.398;10.874;2023-04-25T02:11:00;99929.69;;;15.41;56.22
46690;BME280;32423;45.398;10.874;2023-04-25T02:13:57;99932.41;;;15.41;56.20
46690;BME280;32423;45.398;10.874;2023-04-25T02:16:59;99940.75;;;15.48;55.62
46690;BME280;32423;45.398;10.874;2023-04-25T02:19:51;99935.16;;;15.41;55.90
46690;BME280;32423;45.398;10.874;2023-04-25T02:22:40;99928.09;;;15.40;55.43
46690;BME280;32423;45.398;10.874;2023-04-25T02:25:32;99932.91;;;15.47;55.64
46690;BME280;32423;45.398;10.874;2023-04-25T02:28:24;99920.88;;;15.51;55.71
46690;BME280;32423;45.398;10.874;2023-04-25T02:31:14;99923.03;;;15.42;55.29
46690;BME280;32423;45.398;10.874;2023-04-25T02:34:06;99904.59;;;15.39;55.54
46690;BME280;32423;45.398;10.874;2023-04-25T02:36:58;99906.56;;;15.38;55.51
46690;BME280;32423;45.398;10.874;2023-04-25T02:39:50;99898.66;;;15.33;55.40
46690;BME280;32423;45.398;10.874;2023-04-25T02:42:42;99886.81;;;15.29;55.15
46690;BME280;32423;45.398;10.874;2023-04-25T02:45:34;99895.53;;;15.35;55.18
46690;BME280;32423;45.398;10.874;2023-04-25T02:48:27;99891.19;;;15.34;54.84
46690;BME280;32423;45.398;10.874;2023-04-25T02:51:16;99896.63;;;15.30;54.61
46690;BME280;32423;45.398;10.874;2023-04-25T02:54:08;99890.47;;;15.37;54.37
46690;BME280;32423;45.398;10.874;2023-04-25T02:57:01;99889.38;;;15.41;54.87
46690;BME280;32423;45.398;10.874;2023-04-25T02:59:56;99887.44;;;15.42;53.88
46690;BME280;32423;45.398;10.874;2023-04-25T03:02:48;99893.28;;;15.40;54.18
46690;BME280;32423;45.398;10.874;2023-04-25T03:05:40;99898.38;;;15.42;53.99
46690;BME280;32423;45.398;10.874;2023-04-25T03:08:32;99904.34;;;15.48;53.03
46690;BME280;32423;45.398;10.874;2023-04-25T03:11:25;99900.47;;;15.49;52.83
46690;BME280;32423;45.398;10.874;2023-04-25T03:14:17;99904.34;;;15.48;53.34
46690;BME280;32423;45.398;10.874;2023-04-25T03:17:09;99892.97;;;15.46;54.55
46690;BME280;32423;45.398;10.874;2023-04-25T03:20:01;99898.22;;;15.54;54.86
46690;BME280;32423;45.398;10.874;2023-04-25T03:22:53;99897.78;;;15.52;55.03
46690;BME280;32423;45.398;10.874;2023-04-25T03:25:45;99896.22;;;15.51;54.87
46690;BME280;32423;45.398;10.874;2023-04-25T03:28:37;99889.91;;;15.51;56.06
46690;BME280;32423;45.398;10.874;2023-04-25T03:31:24;99894.41;;;15.39;55.33
46690;BME280;32423;45.398;10.874;2023-04-25T03:34:16;99889.72;;;15.40;54.62
46690;BME280;32423;45.398;10.874;2023-04-25T03:37:08;99887.66;;;15.56;53.66
46690;BME280;32423;45.398;10.874;2023-04-25T03:39:58;99896.00;;;15.40;54.29
46690;BME280;32423;45.398;10.874;2023-04-25T03:43:03;99895.78;;;15.26;54.90
46690;BME280;32423;45.398;10.874;2023-04-25T03:45:56;99904.44;;;15.28;54.61
46690;BME280;32423;45.398;10.874;2023-04-25T03:48:46;99898.88;;;15.25;54.78
46690;BME280;32423;45.398;10.874;2023-04-25T03:51:41;99890.75;;;15.28;54.46
46690;BME280;32423;45.398;10.874;2023-04-25T03:54:34;99904.34;;;15.25;55.08
46690;BME280;32423;45.398;10.874;2023-04-25T03:57:24;99905.16;;;15.25;55.07
46690;BME280;32423;45.398;10.874;2023-04-25T04:00:16;99910.63;;;15.25;54.54
46690;BME280;32423;45.398;10.874;2023-04-25T04:03:06;99907.97;;;15.06;55.72
46690;BME280;32423;45.398;10.874;2023-04-25T04:05:58;99914.22;;;15.07;55.60
46690;BME280;32423;45.398;10.874;2023-04-25T04:08:50;99914.19;;;15.03;55.71
46690;BME280;32423;45.398;10.874;2023-04-25T04:11:42;99910.50;;;14.95;56.08
46690;BME280;32423;45.398;10.874;2023-04-25T04:14:34;99910.75;;;14.87;55.74
46690;BME280;32423;45.398;10.874;2023-04-25T04:17:26;99923.00;;;14.74;56.03
46690;BME280;32423;45.398;10.874;2023-04-25T04:20:18;99927.69;;;14.73;56.82
46690;BME280;32423;45.398;10.874;2023-04-25T04:23:10;99918.31;;;14.74;56.58
46690;BME280;32423;45.398;10.874;2023-04-25T04:25:59;99911.06;;;14.82;56.68
46690;BME280;32423;45.398;10.874;2023-04-25T04:29:00;99913.06;;;14.85;56.35
46690;BME280;32423;45.398;10.874;2023-04-25T04:31:59;99911.59;;;14.91;56.20
46690;BME280;32423;45.398;10.874;2023-04-25T04:34:51;99910.59;;;14.80;56.15
46690;BME280;32423;45.398;10.874;2023-04-25T04:37:43;99923.59;;;14.83;56.18
46690;BME280;32423;45.398;10.874;2023-04-25T07:21:49;100003.78;;;14.48;59.04
46690;BME280;32423;45.398;10.874;2023-04-25T07:24:41;100004.75;;;14.56;62.19
46690;BME280;32423;45.398;10.874;2023-04-25T07:27:31;100009.03;;;14.73;62.43
46690;BME280;32423;45.398;10.874;2023-04-25T07:30:26;99995.34;;;14.73;61.32
46690;BME280;32423;45.398;10.874;2023-04-25T07:33:18;99977.47;;;14.25;64.34
46690;BME280;32423;45.398;10.874;2023-04-25T07:36:09;99972.16;;;13.97;65.90
46690;BME280;32423;45.398;10.874;2023-04-25T07:39:01;99962.09;;;14.01;65.37
46690;BME280;32423;45.398;10.874;2023-04-25T07:41:53;99952.16;;;13.77;66.56
46690;BME280;32423;45.398;10.874;2023-04-25T07:44:48;99940.50;;;13.45;66.66
46690;BME280;32423;45.398;10.874;2023-04-25T07:47:40;99932.66;;;13.28;66.88
46690;BME280;32423;45.398;10.874;2023-04-25T07:50:32;99936.06;;;13.56;64.98
46690;BME280;32423;45.398;10.874;2023-04-25T07:53:24;99945.28;;;13.83;64.97
46690;BME280;32423;45.398;10.874;2023-04-25T07:56:19;99949.91;;;14.14;64.54
46690;BME280;32423;45.398;10.874;2023-04-25T07:59:12;99954.31;;;14.03;64.28
46690;BME280;32423;45.398;10.874;2023-04-25T08:02:05;99955.81;;;13.81;64.35
46690;BME280;32423;45.398;10.874;2023-04-25T08:04:57;99951.50;;;13.64;65.18
46690;BME280;32423;45.398;10.874;2023-04-25T08:07:49;99959.97;;;13.59;65.86
46690;BME280;32423;45.398;10.874;2023-04-25T08:10:41;99973.50;;;13.87;65.87
46690;BME280;32423;45.398;10.874;2023-04-25T08:13:31;99977.53;;;14.28;64.59
46690;BME280;32423;45.398;10.874;2023-04-25T08:16:23;99987.13;;;14.73;63.29
46690;BME280;32423;45.398;10.874;2023-04-25T08:19:17;99991.41;;;15.80;61.25
46690;BME280;32423;45.398;10.874;2023-04-25T08:22:07;100000.97;;;15.90;59.39
46690;BME280;32423;45.398;10.874;2023-04-25T08:25:04;100001.25;;;15.59;58.58
46690;BME280;32423;45.398;10.874;2023-04-25T08:27:54;100023.38;;;15.69;57.70
46690;BME280;32423;45.398;10.874;2023-04-25T08:30:46;100032.97;;;15.82;56.49
46690;BME280;32423;45.398;10.874;2023-04-25T08:33:38;100038.97;;;16.14;55.25
46690;BME280;32423;45.398;10.874;2023-04-25T08:36:48;100030.47;;;16.23;55.18
46690;BME280;32423;45.398;10.874;2023-04-25T08:39:53;100042.13;;;15.67;53.24
46690;BME280;32423;45.398;10.874;2023-04-25T08:42:56;100044.09;;;15.48;55.21
46690;BME280;32423;45.398;10.874;2023-04-25T08:45:48;100030.31;;;15.21;53.61
46690;BME280;32423;45.398;10.874;2023-04-25T08:48:54;100036.88;;;15.39;54.86
46690;BME280;32423;45.398;10.874;2023-04-25T08:51:48;100038.88;;;15.20;53.20
46690;BME280;32423;45.398;10.874;2023-04-25T08:54:45;100032.31;;;15.24;53.74
46690;BME280;32423;45.398;10.874;2023-04-25T08:57:40;100029.75;;;15.35;53.78
46690;BME280;32423;45.398;10.874;2023-04-25T09:00:32;100029.34;;;15.33;52.29
46690;BME280;32423;45.398;10.874;2023-04-25T09:03:19;100024.84;;;15.44;53.18
46690;BME280;32423;45.398;10.874;2023-04-25T09:06:11;100026.22;;;15.54;54.25
46690;BME280;32423;45.398;10.874;2023-04-25T09:09:04;100026.97;;;15.73;54.10
46690;BME280;32423;45.398;10.874;2023-04-25T09:11:56;100030.06;;;15.72;52.82
46690;BME280;32423;45.398;10.874;2023-04-25T09:15:08;100033.41;;;15.62;51.51
46690;BME280;32423;45.398;10.874;2023-04-25T09:18:35;100031.66;;;15.73;50.68
46690;BME280;32423;45.398;10.874;2023-04-25T09:21:28;100043.91;;;16.05;52.85
46690;BME280;32423;45.398;10.874;2023-04-25T09:24:32;100044.47;;;16.14;50.79
46690;BME280;32423;45.398;10.874;2023-04-25T09:27:24;100036.78;;;16.27;51.75
46690;BME280;32423;45.398;10.874;2023-04-25T09:30:43;100038.81;;;16.30;51.68
46690;BME280;32423;45.398;10.874;2023-04-25T09:33:43;100039.53;;;16.27;49.98
46690;BME280;32423;45.398;10.874;2023-04-25T09:36:35;100047.09;;;16.34;49.93
46690;BME280;32423;45.398;10.874;2023-04-25T09:39:48;100044.88;;;16.43;51.04
46690;BME280;32423;45.398;10.874;2023-04-25T09:42:40;100043.72;;;16.70;51.72
46690;BME280;32423;45.398;10.874;2023-04-25T09:45:33;100058.22;;;16.71;50.84
46690;BME280;32423;45.398;10.874;2023-04-25T09:48:32;100044.63;;;16.81;51.63
46690;BME280;32423;45.398;10.874;2023-04-25T09:51:25;100059.44;;;16.73;51.80
46690;BME280;32423;45.398;10.874;2023-04-25T09:54:16;100040.66;;;16.79;51.61
46690;BME280;32423;45.398;10.874;2023-04-25T09:57:15;100043.91;;;16.88;51.05
46690;BME280;32423;45.398;10.874;2023-04-25T10:00:08;100052.41;;;17.09;51.39
46690;BME280;32423;45.398;10.874;2023-04-25T10:03:01;100052.84;;;17.11;50.67
46690;BME280;32423;45.398;10.874;2023-04-25T10:06:11;100055.28;;;17.20;50.41
46690;BME280;32423;45.398;10.874;2023-04-25T10:09:04;100059.69;;;17.28;51.05
46690;BME280;32423;45.398;10.874;2023-04-25T10:11:57;100057.03;;;17.35;51.01
46690;BME280;32423;45.398;10.874;2023-04-25T10:14:49;100061.41;;;17.43;49.60
46690;BME280;32423;45.398;10.874;2023-04-25T10:17:37;100063.81;;;17.44;51.32
46690;BME280;32423;45.398;10.874;2023-04-25T10:20:30;100059.91;;;17.12;52.39
46690;BME280;32423;45.398;10.874;2023-04-25T10:23:22;100061.97;;;17.22;52.39
46690;BME280;32423;45.398;10.874;2023-04-25T10:26:15;100053.41;;;17.27;51.60
46690;BME280;32423;45.398;10.874;2023-04-25T10:29:07;100049.91;;;17.30;52.23
46690;BME280;32423;45.398;10.874;2023-04-25T10:32:00;100048.41;;;17.36;52.29
46690;BME280;32423;45.398;10.874;2023-04-25T10:34:51;100048.00;;;17.38;51.48
46690;BME280;32423;45.398;10.874;2023-04-25T10:37:59;100049.78;;;17.57;50.37
46690;BME280;32423;45.398;10.874;2023-04-25T10:41:05;100054.50;;;17.56;50.70
46690;BME280;32423;45.398;10.874;2023-04-25T10:44:01;100051.44;;;17.61;50.66
46690;BME280;32423;45.398;10.874;2023-04-25T10:46:59;100053.94;;;17.77;50.40
46690;BME280;32423;45.398;10.874;2023-04-25T10:49:52;100048.47;;;17.84;49.89
46690;BME280;32423;45.398;10.874;2023-04-25T10:52:42;100067.47;;;18.00;50.85
46690;BME280;32423;45.398;10.874;2023-04-25T10:55:48;100072.53;;;17.90;49.96
46690;BME280;32423;45.398;10.874;2023-04-25T10:58:43;100064.75;;;18.03;51.91
46690;BME280;32423;45.398;10.874;2023-04-25T11:01:40;100068.63;;;17.95;51.09
46690;BME280;32423;45.398;10.874;2023-04-25T11:04:36;100064.59;;;17.82;51.02
46690;BME280;32423;45.398;10.874;2023-04-25T11:07:32;100069.56;;;17.69;50.60
46690;BME280;32423;45.398;10.874;2023-04-25T11:10:26;100061.31;;;17.69;50.64
46690;BME280;32423;45.398;10.874;2023-04-25T11:13:18;100063.81;;;17.85;50.44
46690;BME280;32423;45.398;10.874;2023-04-25T11:16:11;100062.41;;;18.02;50.10
46690;BME280;32423;45.398;10.874;2023-04-25T11:19:04;100071.91;;;18.11;50.64
46690;BME280;32423;45.398;10.874;2023-04-25T11:21:57;100055.16;;;17.83;50.78
46690;BME280;32423;45.398;10.874;2023-04-25T11:24:47;100057.13;;;17.82;52.36
46690;BME280;32423;45.398;10.874;2023-04-25T11:27:37;100058.66;;;17.80;51.65
46690;BME280;32423;45.398;10.874;2023-04-25T11:30:27;100061.06;;;17.81;50.75
46690;BME280;32423;45.398;10.874;2023-04-25T11:33:22;100054.03;;;17.87;50.82
46690;BME280;32423;45.398;10.874;2023-04-25T11:36:14;100051.34;;;17.98;50.44
46690;BME280;32423;45.398;10.874;2023-04-25T11:39:06;100051.03;;;18.07;50.49
46690;BME280;32423;45.398;10.874;2023-04-25T11:41:58;100046.16;;;17.86;50.06
46690;BME280;32423;45.398;10.874;2023-04-25T11:44:50;100058.47;;;18.03;50.92
46690;BME280;32423;45.398;10.874;2023-04-25T11:47:40;100054.19;;;18.09;50.96
46690;BME280;32423;45.398;10.874;2023-04-25T11:50:30;100055.81;;;18.13;51.97
46690;BME280;32423;45.398;10.874;2023-04-25T11:53:17;100061.38;;;18.24;51.69
46690;BME280;32423;45.398;10.874;2023-04-25T11:56:12;100064.91;;;18.24;50.17
46690;BME280;32423;45.398;10.874;2023-04-25T11:59:02;100066.50;;;18.25;51.96
46690;BME280;32423;45.398;10.874;2023-04-25T12:01:54;100057.38;;;18.14;51.20
46690;BME280;32423;45.398;10.874;2023-04-25T12:04:44;100061.00;;;18.25;51.76
46690;BME280;32423;45.398;10.874;2023-04-25T12:07:35;100039.34;;;18.20;50.50
46690;BME280;32423;45.398;10.874;2023-04-25T12:10:27;100049.00;;;18.00;52.17
46690;BME280;32423;45.398;10.874;2023-04-25T12:13:20;100049.81;;;18.04;52.57
46690;BME280;32423;45.398;10.874;2023-04-25T12:16:16;100040.13;;;18.24;52.91
46690;BME280;32423;45.398;10.874;2023-04-25T12:19:08;100044.59;;;18.43;51.25
46690;BME280;32423;45.398;10.874;2023-04-25T12:21:58;100037.63;;;18.56;51.23
46690;BME280;32423;45.398;10.874;2023-04-25T12:24:51;100037.25;;;18.61;50.71
46690;BME280;32423;45.398;10.874;2023-04-25T12:27:42;100047.91;;;18.66;48.65
46690;BME280;32423;45.398;10.874;2023-04-25T12:30:47;100046.38;;;18.72;46.13
46690;BME280;32423;45.398;10.874;2023-04-25T12:33:43;100046.38;;;18.72;46.77
46690;BME280;32423;45.398;10.874;2023-04-25T12:36:36;100048.34;;;18.75;46.84
46690;BME280;32423;45.398;10.874;2023-04-25T12:39:28;100049.88;;;18.69;47.77
46690;BME280;32423;45.398;10.874;2023-04-25T12:42:20;100061.72;;;18.77;46.34
46690;BME280;32423;45.398;10.874;2023-04-25T12:45:12;100075.50;;;18.77;46.62
46690;BME280;32423;45.398;10.874;2023-04-25T12:48:02;100071.16;;;18.76;47.45
46690;BME280;32423;45.398;10.874;2023-04-25T12:50:54;100060.94;;;18.76;47.29
46690;BME280;32423;45.398;10.874;2023-04-25T12:53:45;100071.16;;;18.76;47.28
46690;BME280;32423;45.398;10.874;2023-04-25T12:56:35;100075.50;;;18.73;46.07
46690;BME280;32423;45.398;10.874;2023-04-25T12:59:27;100077.03;;;18.67;46.19
46690;BME280;32423;45.398;10.874;2023-04-25T13:02:16;100093.53;;;18.64;46.45
46690;BME280;32423;45.398;10.874;2023-04-25T13:05:05;100101.75;;;18.57;47.87
46690;BME280;32423;45.398;10.874;2023-04-25T13:07:57;100107.16;;;18.50;48.38
46690;BME280;32423;45.398;10.874;2023-04-25T13:54:53;100168.13;;;18.04;52.78
46690;BME280;32423;45.398;10.874;2023-04-25T13:57:45;100157.47;;;17.99;53.12
46690;BME280;32423;45.398;10.874;2023-04-25T14:00:35;100162.59;;;17.97;53.62
46690;BME280;32423;45.398;10.874;2023-04-25T14:03:27;100164.09;;;17.91;53.77
46690;BME280;32423;45.398;10.874;2023-04-25T14:06:17;100168.38;;;17.88;53.87
46690;BME280;32423;45.398;10.874;2023-04-25T14:09:09;100182.91;;;17.89;53.62
46690;BME280;32423;45.398;10.874;2023-04-25T14:11:58;100197.41;;;17.82;53.20
46690;BME280;32423;45.398;10.874;2023-04-25T14:14:50;100198.94;;;17.80;53.54
46690;BME280;32423;45.398;10.874;2023-04-25T14:17:43;100200.88;;;17.76;53.22
46690;BME280;32423;45.398;10.874;2023-04-25T14:20:32;100208.66;;;17.70;53.62
46690;BME280;32423;45.398;10.874;2023-04-25T14:23:24;100214.53;;;17.69;53.41
46690;BME280;32423;45.398;10.874;2023-04-25T14:26:16;100218.09;;;17.73;53.86
46690;BME280;32423;45.398;10.874;2023-04-25T14:29:06;100215.31;;;17.69;53.58
46690;BME280;32423;45.398;10.874;2023-04-25T14:32:00;100205.72;;;17.56;53.96
46690;BME280;32423;45.398;10.874;2023-04-25T14:34:50;100147.41;;;17.40;54.93
46690;BME280;32423;45.398;10.874;2023-04-25T14:37:42;100119.00;;;17.29;59.37
46690;BME280;32423;45.398;10.874;2023-04-25T14:40:34;100089.22;;;17.34;61.82
46690;BME280;32423;45.398;10.874;2023-04-25T14:43:23;100095.06;;;17.33;60.55
46690;BME280;32423;45.398;10.874;2023-04-25T14:46:10;100121.38;;;17.30;58.88
46690;BME280;32423;45.398;10.874;2023-04-25T14:49:03;100138.22;;;17.29;57.84
46690;BME280;32423;45.398;10.874;2023-04-25T14:51:55;100134.41;;;17.07;58.38
46690;BME280;32423;45.398;10.874;2023-04-25T14:54:44;100131.06;;;16.91;58.72
46690;BME280;32423;45.398;10.874;2023-04-25T14:57:36;100140.38;;;17.13;57.16
46690;BME280;32423;45.398;10.874;2023-04-25T15:00:28;100141.13;;;17.09;56.92
46690;BME280;32423;45.398;10.874;2023-04-25T15:03:20;100137.44;;;16.98;57.55
46690;BME280;32423;45.398;10.874;2023-04-25T15:06:13;100132.44;;;16.78;57.87
46690;BME280;32423;45.398;10.874;2023-04-25T15:09:05;100122.94;;;16.72;58.79
46690;BME280;32423;45.398;10.874;2023-04-25T15:11:57;100126.56;;;16.53;59.13
46690;BME280;32423;45.398;10.874;2023-04-25T15:14:49;100134.63;;;16.65;58.75
46690;BME280;32423;45.398;10.874;2023-04-25T15:17:41;100130.16;;;16.57;58.12
46690;BME280;32423;45.398;10.874;2023-04-25T15:20:31;100144.38;;;16.62;56.69
46690;BME280;32423;45.398;10.874;2023-04-25T15:23:21;100147.94;;;16.63;57.47
46690;BME280;32423;45.398;10.874;2023-04-25T15:26:13;100146.03;;;16.67;58.14
46690;BME280;32423;45.398;10.874;2023-04-25T15:29:05;100148.25;;;16.84;57.37
46690;BME280;32423;45.398;10.874;2023-04-25T15:31:57;100157.75;;;16.90;57.65
46690;BME280;32423;45.398;10.874;2023-04-25T15:34:49;100145.28;;;16.96;55.96
46690;BME280;32423;45.398;10.874;2023-04-25T15:37:41;100161.75;;;16.96;56.11
46690;BME280;32423;45.398;10.874;2023-04-25T15:40:33;100152.63;;;16.89;56.63
46690;BME280;32423;45.398;10.874;2023-04-25T15:43:25;100151.00;;;16.84;56.95
46690;BME280;32423;45.398;10.874;2023-04-25T15:46:18;100161.06;;;16.77;56.83
46690;BME280;32423;45.398;10.874;2023-04-25T15:49:10;100164.34;;;16.86;56.01
46690;BME280;32423;45.398;10.874;2023-04-25T15:52:02;100156.47;;;16.84;56.42
46690;BME280;32423;45.398;10.874;2023-04-25T15:54:52;100159.22;;;16.84;56.95
46690;BME280;32423;45.398;10.874;2023-04-25T15:57:44;100166.78;;;16.91;55.41
46690;BME280;32423;45.398;10.874;2023-04-25T16:00:36;100165.72;;;16.99;55.33
46690;BME280;32423;45.398;10.874;2023-04-25T16:03:28;100159.00;;;16.96;55.21
46690;BME280;32423;45.398;10.874;2023-04-25T16:06:20;100162.13;;;16.95;55.01
46690;BME280;32423;45.398;10.874;2023-04-25T16:09:09;100165.75;;;17.02;52.83
46690;BME280;32423;45.398;10.874;2023-04-25T16:12:01;100163.78;;;17.03;52.63
46690;BME280;32423;45.398;10.874;2023-04-25T16:14:53;100156.28;;;16.96;52.76
46690;BME280;32423;45.398;10.874;2023-04-25T16:17:43;100154.34;;;17.00;53.31
46690;BME280;32423;45.398;10.874;2023-04-25T16:20:35;100164.91;;;16.98;54.03
46690;BME280;32423;45.398;10.874;2023-04-25T16:23:27;100160.56;;;16.97;54.04
46690;BME280;32423;45.398;10.874;2023-04-25T16:26:18;100157.47;;;16.99;53.95
46690;BME280;32423;45.398;10.874;2023-04-25T16:29:10;100149.22;;;16.99;53.66
46690;BME280;32423;45.398;10.874;2023-04-25T16:32:02;100151.94;;;16.95;53.60
46690;BME280;32423;45.398;10.874;2023-04-25T16:34:54;100138.19;;;16.95;53.58
46690;BME280;32423;45.398;10.874;2023-04-25T16:37:46;100139.03;;;16.99;53.91
46690;BME280;32423;45.398;10.874;2023-04-25T16:40:38;100135.84;;;16.97;54.24
46690;BME280;32423;45.398;10.874;2023-04-25T16:43:28;100139.88;;;17.03;54.58
46690;BME280;32423;45.398;10.874;2023-04-25T16:46:20;100138.38;;;17.09;53.60
46690;BME280;32423;45.398;10.874;2023-04-25T16:49:12;100141.44;;;17.04;53.70
46690;BME280;32423;45.398;10.874;2023-04-25T16:52:01;100150.06;;;17.03;53.66
46690;BME280;32423;45.398;10.874;2023-04-25T16:54:53;100155.56;;;17.03;53.74
46690;BME280;32423;45.398;10.874;2023-04-25T16:57:44;100155.97;;;17.05;53.50
46690;BME280;32423;45.398;10.874;2023-04-25T17:00:36;100156.34;;;17.03;53.28
46690;BME280;32423;45.398;10.874;2023-04-25T17:03:26;100155.38;;;16.89;53.51
46690;BME280;32423;45.398;10.874;2023-04-25T17:06:18;100158.47;;;16.87;53.68
46690;BME280;32423;45.398;10.874;2023-04-25T17:09:10;100164.03;;;16.91;53.31
46690;BME280;32423;45.398;10.874;2023-04-25T17:11:59;100171.88;;;16.92;53.50
46690;BME280;32423;45.398;10.874;2023-04-25T17:14:51;100164.03;;;16.91;53.88
46690;BME280;32423;45.398;10.874;2023-04-25T17:17:43;100169.59;;;16.98;53.69
46690;BME280;32423;45.398;10.874;2023-04-25T17:20:35;100173.59;;;17.00;53.57
46690;BME280;32423;45.398;10.874;2023-04-25T17:23:27;100177.06;;;16.97;53.99
46690;BME280;32423;45.398;10.874;2023-04-25T17:26:19;100175.19;;;17.01;53.59
46690;BME280;32423;45.398;10.874;2023-04-25T17:29:11;100177.81;;;16.94;53.80
46690;BME280;32423;45.398;10.874;2023-04-25T17:32:03;100173.50;;;16.97;53.35
46690;BME280;32423;45.398;10.874;2023-04-25T17:34:55;100187.72;;;17.02;54.08
46690;BME280;32423;45.398;10.874;2023-04-25T17:37:47;100175.19;;;17.01;53.43
46690;BME280;32423;45.398;10.874;2023-04-25T17:40:39;100174.31;;;16.97;53.92
46690;BME280;32423;45.398;10.874;2023-04-25T17:43:31;100177.22;;;16.82;54.33
46690;BME280;32423;45.398;10.874;2023-04-25T17:46:23;100174.31;;;16.71;54.97
46690;BME280;32423;45.398;10.874;2023-04-25T17:49:15;100173.66;;;16.55;55.21
46690;BME280;32423;45.398;10.874;2023-04-25T17:52:07;100177.03;;;16.45;55.80
46690;BME280;32423;45.398;10.874;2023-04-25T17:54:57;100178.13;;;16.40;55.70
46690;BME280;32423;45.398;10.874;2023-04-25T17:57:49;100191.91;;;16.44;55.18
46690;BME280;32423;45.398;10.874;2023-04-25T18:00:41;100196.78;;;16.54;54.54
46690;BME280;32423;45.398;10.874;2023-04-25T18:03:33;100204.84;;;16.66;54.47
46690;BME280;32423;45.398;10.874;2023-04-25T18:06:22;100204.38;;;16.60;54.81
46690;BME280;32423;45.398;10.874;2023-04-25T18:09:14;100202.69;;;16.56;55.08
46690;BME280;32423;45.398;10.874;2023-04-25T18:12:06;100198.44;;;16.58;55.04
46690;BME280;32423;45.398;10.874;2023-04-25T18:14:58;100202.88;;;16.66;55.43
46690;BME280;32423;45.398;10.874;2023-04-25T18:17:48;100208.84;;;16.72;55.20
46690;BME280;32423;45.398;10.874;2023-04-25T18:20:37;100221.00;;;16.71;55.55